Decoded Metar for KBIS (BISMARCK in ND, USA) (IATA:BIS) | Meteo·Mobile Aviation Weather
aviador You're here:

KBIS Decoded Metar

BISMARCK in ND, USA
Report Time2018-11-19 08:52:00
UTC Time2018-11-19 08:56:51
Flight Rules mvfr MVFR
Wind060° at 10 kt
W.Decomp.*RWY 03: 9.2 kt HW 3.9 kt RCW
RWY 13: 2.2 kt HW 9.7 kt LCW
W.Rank060° ranks 9
Current wind is above 060° avg. (6.7)
Visibility9999 m
Phenomena:N/A
Clouds:Broken 029 Hf
Overcast 047 Hf
Expected CloudBase > 1,200 ft AGL from Temp-Dew spread
Ceiling2,900 ft
Temp-8°C (ISA -20)
Dew Point-11°C (79% RH)
AAT-14.7°C
QNH1020 hPa
Density Alt-981 ft
Elevation1,657 ft
Report Wrong Elevation
Raw Report
METAR KBIS 190852Z AUTO 06010KT 10SM BKN029 OVC047 M08/M11 A3012 RMK
AO2 SLP225 60000 T10831111 53026=

Extra information for KBIS:More info

Metar Taf Metar & Taf Last 4 Metars F.Rules Stats Wind Profile Meteogram Temp Stats Airport Information Weather charts Add Link Nearby VenuesMetar ALERT Operation Metar Decoded Social comments

AIRNAV info for KBIS